createdAt,value
2018-03-15T00:02:27.368Z,13.13
2018-03-15T00:04:53.667Z,12.13
2018-03-15T00:07:19.935Z,13.53
2018-03-15T00:09:46.302Z,11.83
2018-03-15T00:12:12.528Z,13.97
2018-03-15T00:14:38.937Z,13.57
2018-03-15T00:17:05.185Z,15.10
2018-03-15T00:19:31.420Z,13.30
2018-03-15T00:21:58.100Z,12.97
2018-03-15T00:24:24.452Z,12.63
2018-03-15T00:26:50.688Z,13.80
2018-03-15T00:29:17.140Z,11.07
2018-03-15T00:31:43.364Z,16.33
2018-03-15T00:34:09.856Z,11.97
2018-03-15T00:36:36.113Z,13.90
2018-03-15T00:39:02.641Z,11.53
2018-03-15T00:41:28.941Z,11.93
2018-03-15T00:43:55.356Z,13.27
2018-03-15T00:46:21.769Z,13.87
2018-03-15T00:48:47.984Z,16.23
2018-03-15T00:51:14.494Z,13.13
2018-03-15T00:53:40.723Z,14.07
2018-03-15T00:56:07.212Z,10.53
2018-03-15T00:58:33.537Z,11.10
2018-03-15T01:01:00.060Z,11.47
2018-03-15T01:03:26.374Z,10.70
2018-03-15T01:05:52.968Z,12.57
2018-03-15T01:08:19.193Z,16.07
2018-03-15T01:10:45.412Z,12.10
2018-03-15T01:13:11.648Z,11.90
2018-03-15T01:15:37.869Z,12.73
2018-03-15T01:18:04.095Z,9.73
2018-03-15T01:20:30.338Z,11.70
2018-03-15T01:22:56.567Z,11.00
2018-03-15T01:25:22.778Z,17.67
2018-03-15T01:27:49.011Z,12.77
2018-03-15T01:30:15.228Z,12.97
2018-03-15T01:32:41.443Z,13.03
2018-03-15T01:35:07.714Z,15.50
2018-03-15T01:37:33.936Z,12.63
2018-03-15T01:40:00.197Z,15.03
2018-03-15T01:42:26.439Z,15.47
2018-03-15T01:44:52.668Z,12.57
2018-03-15T01:47:18.888Z,12.60
2018-03-15T01:49:45.135Z,12.43
2018-03-15T01:52:11.358Z,14.00
2018-03-15T01:54:37.580Z,11.77
2018-03-15T01:57:03.840Z,12.83
2018-03-15T01:59:30.061Z,17.87
2018-03-15T02:01:56.323Z,11.33
2018-03-15T02:04:22.548Z,14.80
2018-03-15T02:06:48.755Z,12.67
2018-03-15T02:09:15.021Z,12.27
2018-03-15T02:11:41.292Z,10.80
2018-03-15T02:14:07.525Z,17.43
2018-03-15T02:16:33.741Z,14.23
2018-03-15T02:18:59.987Z,12.27
2018-03-15T02:21:26.224Z,11.30
2018-03-15T02:23:52.455Z,11.00
2018-03-15T02:26:18.706Z,11.13
2018-03-15T02:28:44.942Z,13.57
2018-03-15T02:31:11.162Z,10.17
2018-03-15T02:33:37.413Z,11.37
2018-03-15T02:36:03.652Z,9.37
2018-03-15T02:38:29.895Z,10.50
2018-03-15T02:40:56.148Z,11.27
2018-03-15T02:43:22.372Z,13.20
2018-03-15T02:45:48.592Z,10.20
2018-03-15T02:48:14.838Z,12.00
2018-03-15T02:50:41.050Z,10.20
2018-03-15T02:53:07.335Z,9.13
2018-03-15T02:55:33.552Z,12.23
2018-03-15T02:58:00.925Z,11.80
2018-03-15T03:00:27.140Z,11.53
2018-03-15T03:02:53.376Z,10.53
2018-03-15T03:05:19.602Z,9.90
2018-03-15T03:07:45.826Z,10.60
2018-03-15T03:10:12.064Z,11.67
2018-03-15T03:12:38.276Z,18.10
2018-03-15T03:15:04.488Z,10.43
2018-03-15T03:17:30.825Z,11.43
2018-03-15T03:19:57.032Z,12.30
2018-03-15T03:22:23.240Z,14.00
2018-03-15T03:24:49.480Z,13.33
2018-03-15T03:27:15.708Z,12.47
2018-03-15T03:29:41.920Z,12.33
2018-03-15T03:32:08.172Z,12.13
2018-03-15T03:34:34.411Z,11.03
2018-03-15T03:37:00.648Z,10.00
2018-03-15T03:39:26.893Z,15.03
2018-03-15T03:41:53.140Z,10.77
2018-03-15T03:44:19.375Z,10.87
2018-03-15T03:46:45.587Z,13.17
2018-03-15T03:49:11.824Z,12.43
2018-03-15T03:51:38.041Z,13.53
2018-03-15T03:54:04.300Z,9.93
2018-03-15T03:56:30.516Z,12.53
2018-03-15T03:58:56.723Z,14.47
2018-03-15T04:01:22.956Z,12.50
2018-03-15T04:03:49.167Z,13.03
2018-03-15T04:06:15.404Z,11.00
2018-03-15T04:08:41.620Z,11.40
2018-03-15T04:11:07.859Z,12.13
2018-03-15T04:13:34.099Z,9.10
2018-03-15T04:16:00.336Z,11.70
2018-03-15T04:18:26.549Z,13.10
2018-03-15T04:20:52.808Z,12.40
2018-03-15T04:23:19.035Z,11.03
2018-03-15T04:25:45.258Z,13.50
2018-03-15T04:28:11.491Z,12.77
2018-03-15T04:30:37.729Z,10.70
2018-03-15T04:33:03.960Z,14.30
2018-03-15T04:35:30.180Z,12.63
2018-03-15T04:37:56.415Z,9.30
2018-03-15T04:40:22.669Z,9.87
2018-03-15T04:42:48.895Z,17.30
2018-03-15T04:45:15.113Z,10.73
2018-03-15T04:47:41.413Z,13.27
2018-03-15T04:50:07.625Z,13.93
2018-03-15T04:52:33.908Z,13.67
2018-03-15T04:55:00.149Z,9.90
2018-03-15T04:57:26.372Z,10.47
2018-03-15T04:59:52.608Z,14.90
2018-03-15T05:02:18.835Z,9.73
2018-03-15T05:04:45.077Z,13.20
2018-03-15T05:07:11.316Z,10.43
2018-03-15T05:09:37.571Z,11.27
2018-03-15T05:12:03.833Z,12.57
2018-03-15T05:14:30.119Z,11.30
2018-03-15T05:16:56.328Z,13.77
2018-03-15T05:19:22.578Z,10.93
2018-03-15T05:21:48.859Z,9.30
2018-03-15T05:24:15.065Z,14.53
2018-03-15T05:26:41.325Z,11.83
2018-03-15T05:29:07.545Z,9.70
2018-03-15T05:31:33.816Z,11.53
2018-03-15T05:34:00.068Z,11.30
2018-03-15T05:36:26.315Z,12.77
2018-03-15T05:38:52.553Z,13.00
2018-03-15T05:41:18.785Z,13.20
2018-03-15T05:43:45.053Z,17.03
2018-03-15T05:46:11.321Z,11.33
2018-03-15T05:48:37.618Z,12.40
2018-03-15T05:51:03.945Z,10.83
2018-03-15T05:53:30.222Z,10.33
2018-03-15T05:55:56.473Z,12.57
2018-03-15T05:58:22.735Z,11.67
2018-03-15T06:00:49.025Z,11.70
2018-03-15T06:03:15.276Z,12.23
2018-03-15T06:05:41.523Z,8.03
2018-03-15T06:08:07.740Z,10.63
2018-03-15T06:10:33.968Z,11.83
2018-03-15T06:13:00.180Z,11.70
2018-03-15T06:15:26.414Z,14.73
2018-03-15T06:17:52.632Z,13.27
2018-03-15T06:20:18.861Z,15.43
2018-03-15T06:22:45.077Z,14.23
2018-03-15T06:25:11.308Z,13.37
2018-03-15T06:27:37.521Z,22.10
2018-03-15T06:30:03.793Z,21.00
2018-03-15T06:32:30.030Z,20.80
2018-03-15T06:34:56.257Z,13.63
2018-03-15T06:37:22.493Z,15.23
2018-03-15T06:39:48.716Z,12.30
2018-03-15T06:42:14.945Z,17.70
2018-03-15T06:44:41.165Z,13.30
2018-03-15T06:47:07.417Z,14.77
2018-03-15T06:49:33.632Z,18.27
2018-03-15T06:51:59.872Z,13.60
2018-03-15T06:54:26.080Z,16.27
2018-03-15T06:56:52.304Z,16.10
2018-03-15T06:59:18.541Z,15.97
2018-03-15T07:01:44.751Z,19.37
2018-03-15T07:04:11.029Z,18.37
2018-03-15T07:06:37.244Z,17.40
2018-03-15T07:09:03.532Z,19.60
2018-03-15T07:11:29.738Z,15.83
2018-03-15T07:13:55.968Z,17.33
2018-03-15T07:16:22.192Z,15.27
2018-03-15T07:18:48.481Z,21.20
2018-03-15T07:21:14.701Z,27.20
2018-03-15T07:23:40.928Z,24.33
2018-03-15T07:26:07.167Z,18.13
2018-03-15T07:28:33.404Z,15.23
2018-03-15T07:30:59.636Z,16.17
2018-03-15T07:33:25.856Z,13.07
2018-03-15T07:35:52.096Z,17.00
2018-03-15T07:38:18.313Z,15.10
2018-03-15T07:40:44.548Z,17.53
2018-03-15T07:43:10.783Z,19.20
2018-03-15T07:45:37.031Z,15.23
2018-03-15T07:48:03.428Z,15.53
2018-03-15T07:50:29.696Z,14.37
2018-03-15T07:52:55.961Z,13.13
2018-03-15T07:55:22.229Z,13.83
2018-03-15T07:57:48.481Z,15.37
2018-03-15T08:00:14.715Z,14.17
2018-03-15T08:02:40.952Z,15.23
2018-03-15T08:05:07.176Z,15.80
2018-03-15T08:07:33.407Z,16.30
2018-03-15T08:09:59.607Z,11.90
2018-03-15T08:12:25.836Z,15.43
2018-03-15T08:14:52.043Z,15.87
2018-03-15T08:17:18.273Z,15.37
2018-03-15T08:19:44.484Z,16.50
2018-03-15T08:22:10.739Z,17.27
2018-03-15T08:24:37.380Z,13.53
2018-03-15T08:27:03.812Z,14.77
2018-03-15T08:29:30.115Z,13.40
2018-03-15T08:31:56.456Z,13.53
2018-03-15T08:34:22.907Z,13.37
2018-03-15T08:36:49.133Z,14.73
2018-03-15T08:39:15.563Z,13.47
2018-03-15T08:41:41.776Z,12.33
2018-03-15T08:44:08.326Z,12.50
2018-03-15T08:46:34.611Z,21.67
2018-03-15T08:49:01.092Z,15.30
2018-03-15T08:51:27.435Z,14.20
2018-03-15T08:53:53.718Z,15.43
2018-03-15T08:56:20.069Z,18.47
2018-03-15T08:58:46.432Z,13.80
2018-03-15T09:01:12.904Z,13.97
2018-03-15T09:03:39.168Z,15.47
2018-03-15T09:06:05.451Z,15.40
2018-03-15T09:08:31.689Z,16.33
2018-03-15T09:10:58.311Z,13.97
2018-03-15T09:13:24.843Z,17.90
2018-03-15T09:15:51.136Z,15.10
2018-03-15T09:18:17.671Z,14.20
2018-03-15T09:20:43.896Z,15.03
2018-03-15T09:23:10.272Z,15.67
2018-03-15T09:25:36.535Z,17.23
2018-03-15T09:28:03.101Z,14.97
2018-03-15T09:30:29.500Z,15.83
2018-03-15T09:32:55.777Z,16.73
2018-03-15T09:35:22.328Z,18.00
2018-03-15T09:37:48.609Z,17.10
2018-03-15T09:40:15.059Z,15.97
2018-03-15T09:42:41.432Z,17.73
2018-03-15T09:45:07.796Z,19.07
2018-03-15T09:47:34.131Z,20.53
2018-03-15T09:50:00.429Z,18.63
2018-03-15T09:52:26.801Z,20.00
2018-03-15T09:54:53.130Z,20.03
2018-03-15T09:57:19.754Z,22.27
2018-03-15T09:59:46.049Z,20.03
2018-03-15T10:02:12.311Z,25.90
2018-03-15T10:04:38.596Z,26.07
2018-03-15T10:07:04.897Z,21.67
2018-03-15T10:09:31.131Z,28.67
2018-03-15T10:11:57.404Z,20.07
2018-03-15T10:14:23.636Z,22.43
2018-03-15T10:16:50.263Z,20.97
2018-03-15T10:19:16.504Z,22.27
2018-03-15T10:21:42.768Z,20.43
2018-03-15T10:24:09.011Z,19.27
2018-03-15T10:26:35.315Z,16.97
2018-03-15T10:29:01.580Z,18.13
2018-03-15T10:31:27.825Z,19.00
2018-03-15T10:33:54.092Z,15.73
2018-03-15T10:36:20.344Z,15.37
2018-03-15T10:38:46.595Z,12.83
2018-03-15T10:41:12.916Z,12.57
2018-03-15T10:43:39.148Z,11.50
2018-03-15T10:46:05.410Z,11.80
2018-03-15T10:48:31.664Z,14.00
2018-03-15T10:50:57.932Z,22.13
2018-03-15T10:53:24.228Z,12.13
2018-03-15T10:55:50.493Z,14.13
2018-03-15T10:58:16.728Z,13.43
2018-03-15T11:00:49.016Z,10.27
2018-03-15T11:03:17.091Z,9.63
2018-03-15T11:05:46.453Z,11.70
2018-03-15T11:08:18.807Z,11.57
2018-03-15T11:10:45.099Z,10.90
2018-03-15T11:13:11.335Z,9.83
2018-03-15T11:15:37.613Z,16.10
2018-03-15T11:18:03.892Z,10.73
2018-03-15T11:20:30.128Z,10.80
2018-03-15T11:22:56.428Z,10.07
2018-03-15T11:25:22.703Z,10.37
2018-03-15T11:27:49.009Z,10.30
2018-03-15T11:30:15.248Z,10.10
2018-03-15T11:32:41.510Z,9.93
2018-03-15T11:35:07.755Z,9.93
2018-03-15T11:37:34.017Z,10.60
2018-03-15T11:40:00.256Z,10.27
2018-03-15T11:42:26.568Z,11.77
2018-03-15T11:44:52.816Z,10.20
2018-03-15T11:47:19.067Z,12.00
2018-03-15T11:49:45.323Z,11.13
2018-03-15T11:52:11.559Z,9.87
2018-03-15T11:54:37.853Z,10.43
2018-03-15T11:57:04.168Z,10.00
2018-03-15T11:59:30.415Z,10.57
2018-03-15T12:01:56.655Z,10.33
2018-03-15T12:04:22.920Z,9.70
2018-03-15T12:06:49.165Z,10.07
2018-03-15T12:09:15.420Z,9.43
2018-03-15T12:11:41.688Z,10.83
2018-03-15T12:14:07.940Z,10.00
2018-03-15T12:16:34.212Z,11.00
2018-03-15T12:19:00.459Z,10.83
2018-03-15T12:21:27.338Z,12.27
2018-03-15T12:23:53.620Z,10.70
2018-03-15T12:26:19.864Z,10.63
2018-03-15T12:28:46.121Z,11.90
2018-03-15T12:31:12.344Z,11.47
2018-03-15T12:33:38.581Z,13.50
2018-03-15T12:36:04.819Z,11.83
2018-03-15T12:38:31.051Z,11.57
2018-03-15T12:40:57.282Z,10.07
2018-03-15T12:43:23.511Z,11.32
2018-03-15T12:45:49.771Z,11.05
2018-03-15T12:48:15.985Z,10.88
2018-03-15T12:50:42.229Z,10.45
2018-03-15T12:53:08.487Z,11.35
2018-03-15T12:55:34.736Z,10.65
2018-03-15T12:58:00.949Z,10.35
2018-03-15T13:00:27.202Z,11.93
2018-03-15T13:02:53.464Z,12.97
2018-03-15T13:05:19.704Z,11.60
2018-03-15T13:07:45.940Z,11.03
2018-03-15T13:10:12.200Z,11.13
2018-03-15T13:12:38.427Z,11.47
2018-03-15T13:15:04.668Z,14.90
2018-03-15T13:17:30.906Z,10.83
2018-03-15T13:19:57.156Z,11.93
2018-03-15T13:22:23.393Z,12.47
2018-03-15T13:24:49.616Z,12.00
2018-03-15T13:27:15.848Z,10.37
2018-03-15T13:29:42.071Z,11.10
2018-03-15T13:32:08.304Z,10.60
2018-03-15T13:34:34.553Z,11.70
2018-03-15T13:37:00.796Z,12.33
2018-03-15T13:39:27.013Z,11.67
2018-03-15T13:41:53.248Z,11.87
2018-03-15T13:44:19.496Z,11.80
2018-03-15T13:46:45.724Z,12.63
2018-03-15T13:49:11.977Z,15.20
2018-03-15T13:51:38.200Z,12.57
2018-03-15T13:54:04.504Z,14.57
2018-03-15T13:56:30.732Z,12.67
2018-03-15T13:58:56.990Z,11.33
2018-03-15T14:01:23.269Z,12.17
2018-03-15T14:03:49.508Z,12.27
2018-03-15T14:06:15.740Z,11.90
2018-03-15T14:08:41.999Z,12.27
2018-03-15T14:11:08.220Z,11.83
2018-03-15T14:13:34.456Z,14.07
2018-03-15T14:16:00.688Z,12.63
2018-03-15T14:18:26.908Z,14.23
2018-03-15T14:20:53.152Z,11.27
2018-03-15T14:23:19.407Z,13.43
2018-03-15T14:25:45.628Z,10.73
2018-03-15T14:28:11.839Z,13.30
2018-03-15T14:30:38.076Z,13.93
2018-03-15T14:33:04.320Z,16.30
2018-03-15T14:35:30.569Z,13.90
2018-03-15T14:37:56.791Z,13.93
2018-03-15T14:40:23.021Z,12.17
2018-03-15T14:42:49.267Z,12.33
2018-03-15T14:45:15.520Z,15.40
2018-03-15T14:47:41.779Z,15.47
2018-03-15T14:50:07.996Z,12.83
2018-03-15T14:52:34.240Z,12.33
2018-03-15T14:55:00.480Z,15.83
2018-03-15T14:57:26.716Z,11.43
2018-03-15T14:59:52.944Z,13.23
2018-03-15T15:02:19.208Z,15.53
2018-03-15T15:04:45.424Z,17.67
2018-03-15T15:07:11.647Z,16.77
2018-03-15T15:09:37.892Z,13.67
2018-03-15T15:12:04.108Z,12.93
2018-03-15T15:14:30.356Z,13.67
2018-03-15T15:16:56.618Z,11.20
2018-03-15T15:19:22.896Z,14.73
2018-03-15T15:21:49.123Z,12.63
2018-03-15T15:24:15.369Z,12.23
2018-03-15T15:26:41.597Z,14.47
2018-03-15T15:29:07.897Z,13.60
2018-03-15T15:31:34.185Z,12.83
2018-03-15T15:34:00.438Z,16.03
2018-03-15T15:36:26.668Z,12.40
2018-03-15T15:38:52.893Z,18.33
2018-03-15T15:41:19.174Z,13.60
2018-03-15T15:43:45.410Z,11.67
2018-03-15T15:46:11.661Z,13.23
2018-03-15T15:48:37.880Z,14.83
2018-03-15T15:51:04.128Z,14.27
2018-03-15T15:53:30.432Z,12.33
2018-03-15T15:55:56.652Z,10.43
2018-03-15T15:58:22.885Z,14.30
2018-03-15T16:00:49.101Z,10.80
2018-03-15T16:03:15.344Z,10.93
2018-03-15T16:05:41.604Z,10.50
2018-03-15T16:08:07.864Z,13.40
2018-03-15T16:10:34.129Z,12.40
2018-03-15T16:13:00.379Z,13.20
2018-03-15T16:15:26.601Z,15.50
2018-03-15T16:17:52.875Z,12.27
2018-03-15T16:20:19.116Z,12.90
2018-03-15T16:22:45.360Z,14.60
2018-03-15T16:25:11.604Z,11.53
2018-03-15T16:27:37.837Z,13.53
2018-03-15T16:30:04.137Z,12.80
2018-03-15T16:32:30.360Z,12.60
2018-03-15T16:34:56.620Z,12.50
2018-03-15T16:37:22.855Z,13.57
2018-03-15T16:39:49.108Z,13.13
2018-03-15T16:42:15.368Z,13.10
2018-03-15T16:44:41.646Z,12.20
2018-03-15T16:47:07.902Z,10.17
2018-03-15T16:49:34.125Z,10.87
2018-03-15T16:52:00.370Z,10.77
2018-03-15T16:54:26.621Z,12.47
2018-03-15T16:56:52.876Z,11.43
2018-03-15T16:59:19.108Z,13.07
2018-03-15T17:01:45.378Z,12.83
2018-03-15T17:04:11.609Z,11.50
2018-03-15T17:06:37.850Z,13.43
2018-03-15T17:09:04.132Z,14.60
2018-03-15T17:11:30.434Z,13.33
2018-03-15T17:13:56.705Z,12.93
2018-03-15T17:16:22.928Z,15.03
2018-03-15T17:18:49.205Z,14.47
2018-03-15T17:21:15.471Z,16.83
2018-03-15T17:23:44.236Z,12.67
2018-03-15T17:26:10.508Z,13.50
2018-03-15T17:28:36.828Z,13.00
2018-03-15T17:31:03.246Z,14.10
2018-03-15T17:33:29.484Z,15.87
2018-03-15T17:35:56.001Z,18.20
2018-03-15T17:38:22.400Z,16.83
2018-03-15T17:40:48.745Z,12.67
2018-03-15T17:43:14.967Z,14.40
2018-03-15T17:45:41.312Z,14.13
2018-03-15T17:48:07.630Z,17.73
2018-03-15T17:50:33.927Z,14.77
2018-03-15T17:53:00.240Z,13.30
2018-03-15T17:55:26.528Z,13.33
2018-03-15T17:57:52.764Z,20.13
2018-03-15T18:00:19.008Z,18.57
2018-03-15T18:02:45.293Z,13.93
2018-03-15T18:05:11.542Z,15.63
2018-03-15T18:07:37.797Z,16.60
2018-03-15T18:10:04.393Z,14.87
2018-03-15T18:12:30.819Z,18.20
2018-03-15T18:14:57.097Z,12.97
2018-03-15T18:17:23.639Z,14.33
2018-03-15T18:19:49.952Z,16.20
2018-03-15T18:22:16.302Z,17.00
2018-03-15T18:24:42.730Z,14.33
2018-03-15T18:27:08.969Z,14.53
2018-03-15T18:29:35.361Z,17.10
2018-03-15T18:32:01.636Z,14.03
2018-03-15T18:34:28.115Z,13.47
2018-03-15T18:36:54.496Z,13.83
2018-03-15T18:39:21.018Z,11.57
2018-03-15T18:41:47.311Z,11.37
2018-03-15T18:44:13.571Z,11.73
2018-03-15T18:46:39.874Z,17.17
2018-03-15T18:49:06.161Z,12.30
2018-03-15T18:51:32.392Z,16.23
2018-03-15T18:53:58.682Z,12.27
2018-03-15T18:56:24.936Z,13.20
2018-03-15T18:58:51.204Z,15.40
2018-03-15T19:01:17.532Z,13.23
2018-03-15T19:03:43.785Z,12.83
2018-03-15T19:06:10.105Z,13.83
2018-03-15T19:08:36.401Z,12.87
2018-03-15T19:11:02.648Z,12.13
2018-03-15T19:13:28.920Z,16.17
2018-03-15T19:15:55.202Z,15.80
2018-03-15T19:18:21.453Z,14.33
2018-03-15T19:20:47.718Z,16.97
2018-03-15T19:23:14.640Z,17.20
2018-03-15T19:25:40.921Z,16.93
2018-03-15T19:28:07.175Z,18.90
2018-03-15T19:30:33.460Z,13.87
2018-03-15T19:32:59.692Z,14.40
2018-03-15T19:35:25.957Z,13.67
2018-03-15T19:37:52.274Z,13.63
2018-03-15T19:40:18.501Z,16.17
2018-03-15T19:42:44.759Z,13.30
2018-03-15T19:45:11.016Z,16.00
2018-03-15T19:47:37.303Z,17.83
2018-03-15T19:50:03.606Z,17.00
2018-03-15T19:52:29.882Z,16.03
2018-03-15T19:54:56.117Z,14.30
2018-03-15T19:57:22.365Z,14.50
2018-03-15T19:59:48.630Z,17.93
2018-03-15T20:02:14.902Z,14.90
2018-03-15T20:04:41.179Z,17.60
2018-03-15T20:07:07.476Z,20.97
2018-03-15T20:09:33.744Z,16.57
2018-03-15T20:11:59.990Z,17.47
2018-03-15T20:14:26.256Z,18.30
2018-03-15T20:16:52.497Z,15.47
2018-03-15T20:19:18.819Z,16.47
2018-03-15T20:21:45.129Z,15.53
2018-03-15T20:24:17.423Z,17.37
2018-03-15T20:26:43.661Z,17.43
2018-03-15T20:29:09.877Z,17.37
2018-03-15T20:31:36.164Z,21.97
2018-03-15T20:34:08.437Z,19.47
2018-03-15T20:36:34.692Z,19.37
2018-03-15T20:39:01.105Z,17.83
2018-03-15T20:41:27.409Z,19.07
2018-03-15T20:43:53.752Z,21.07
2018-03-15T20:46:25.932Z,22.17
2018-03-15T20:48:58.426Z,20.30
2018-03-15T20:51:24.845Z,20.63
2018-03-15T20:53:51.096Z,16.87
2018-03-15T20:56:17.347Z,19.93
2018-03-15T20:58:43.620Z,17.87
2018-03-15T21:01:10.048Z,22.33
2018-03-15T21:03:36.448Z,17.07
2018-03-15T21:06:02.690Z,19.97
2018-03-15T21:08:28.938Z,18.63
2018-03-15T21:10:55.277Z,19.57
2018-03-15T21:13:21.522Z,21.13
2018-03-15T21:15:48.048Z,19.57
2018-03-15T21:18:14.373Z,20.87
2018-03-15T21:20:40.911Z,20.17
2018-03-15T21:23:07.310Z,17.20
2018-03-15T21:25:33.536Z,18.33
2018-03-15T21:27:59.809Z,19.97
2018-03-15T21:30:26.072Z,22.93
2018-03-15T21:32:54.687Z,20.43
2018-03-15T21:35:20.920Z,18.67
2018-03-15T21:37:47.152Z,18.83
2018-03-15T21:40:13.392Z,19.30
2018-03-15T21:42:39.645Z,18.93
2018-03-15T21:45:06.029Z,24.63
2018-03-15T21:47:32.291Z,20.30
2018-03-15T21:49:58.526Z,22.17
2018-03-15T21:52:24.980Z,21.80
2018-03-15T21:54:51.200Z,22.37
2018-03-15T21:57:17.412Z,23.00
2018-03-15T21:59:43.664Z,21.00
2018-03-15T22:02:09.887Z,20.77
2018-03-15T22:04:36.377Z,25.37
2018-03-15T22:07:02.636Z,20.97
2018-03-15T22:09:28.870Z,52.13
2018-03-15T22:11:55.176Z,63.77
2018-03-15T22:14:21.411Z,21.80
2018-03-15T22:16:47.699Z,24.37
2018-03-15T22:19:13.980Z,21.87
2018-03-15T22:21:40.221Z,20.03
2018-03-15T22:24:06.644Z,18.77
2018-03-15T22:26:32.901Z,22.90
2018-03-15T22:28:59.164Z,20.60
2018-03-15T22:31:25.404Z,23.10
2018-03-15T22:33:51.637Z,22.90
2018-03-15T22:36:18.007Z,23.50
2018-03-15T22:38:44.248Z,21.83
2018-03-15T22:41:10.468Z,19.13
2018-03-15T22:43:36.891Z,19.77
2018-03-15T22:46:03.164Z,22.00
2018-03-15T22:48:29.402Z,23.27
2018-03-15T22:50:55.668Z,22.97
2018-03-15T22:53:21.905Z,20.30
2018-03-15T22:55:48.297Z,22.07
2018-03-15T22:58:14.552Z,25.13
2018-03-15T23:00:40.783Z,24.83
2018-03-15T23:03:07.140Z,24.33
2018-03-15T23:05:33.376Z,25.10
2018-03-15T23:07:59.667Z,27.70
2018-03-15T23:10:25.923Z,28.13
2018-03-15T23:12:52.156Z,30.27
2018-03-15T23:15:18.547Z,26.60
2018-03-15T23:17:44.769Z,28.57
2018-03-15T23:20:11.050Z,26.03
2018-03-15T23:22:37.330Z,35.33
2018-03-15T23:25:03.612Z,29.70
2018-03-15T23:27:30.245Z,31.43
2018-03-15T23:29:56.492Z,35.10
2018-03-15T23:32:22.732Z,29.70
2018-03-15T23:34:49.082Z,28.57
2018-03-15T23:37:15.334Z,28.90
2018-03-15T23:39:41.583Z,35.27
2018-03-15T23:42:07.837Z,35.37
2018-03-15T23:44:34.062Z,38.93
2018-03-15T23:47:00.304Z,32.60
2018-03-15T23:49:26.529Z,38.17
2018-03-15T23:51:52.754Z,33.93
2018-03-15T23:54:19.132Z,41.13
2018-03-15T23:56:45.365Z,34.33
2018-03-15T23:59:11.674Z,37.97
